createdAt,value
2023-07-23T00:01:23.739Z,13.53
2023-07-23T00:03:50.233Z,13.64
2023-07-23T00:06:18.992Z,13.59
2023-07-23T00:08:50.092Z,13.40
2023-07-23T00:11:16.729Z,13.37
2023-07-23T00:13:43.715Z,13.39
2023-07-23T00:16:12.821Z,13.54
2023-07-23T00:18:39.232Z,13.47
2023-07-23T00:21:08.067Z,13.58
2023-07-23T00:23:34.444Z,13.59
2023-07-23T00:26:00.825Z,13.59
2023-07-23T00:28:27.315Z,13.56
2023-07-23T00:30:53.726Z,13.61
2023-07-23T00:33:20.366Z,13.57
2023-07-23T00:35:46.860Z,13.63
2023-07-23T00:38:13.274Z,13.49
2023-07-23T00:40:39.641Z,13.42
2023-07-23T00:43:06.167Z,13.58
2023-07-23T00:45:32.815Z,13.51
2023-07-23T00:48:00.415Z,13.52
2023-07-23T00:50:27.216Z,13.52
2023-07-23T00:52:53.800Z,13.50
2023-07-23T00:55:20.410Z,13.57
2023-07-23T00:57:46.952Z,13.49
2023-07-23T01:00:13.793Z,13.55
2023-07-23T01:02:40.310Z,13.49
2023-07-23T01:05:08.030Z,13.54
2023-07-23T01:07:35.211Z,13.56
2023-07-23T01:10:02.957Z,13.62
2023-07-23T01:12:29.977Z,13.62
2023-07-23T01:14:59.568Z,13.61
2023-07-23T01:17:29.255Z,13.52
2023-07-23T01:20:03.376Z,13.53
2023-07-23T01:22:29.858Z,13.52
2023-07-23T01:24:59.609Z,13.40
2023-07-23T01:27:35.804Z,13.50
2023-07-23T01:30:02.266Z,13.33
2023-07-23T01:32:31.515Z,13.41
2023-07-23T01:35:04.858Z,13.43
2023-07-23T01:37:31.273Z,13.48
2023-07-23T01:39:57.958Z,13.44
2023-07-23T01:42:24.858Z,13.43
2023-07-23T01:44:54.050Z,13.49
2023-07-23T01:47:20.545Z,13.36
2023-07-23T01:49:47.173Z,13.46
2023-07-23T01:52:13.698Z,13.41
2023-07-23T01:54:40.106Z,13.54
2023-07-23T01:57:06.575Z,13.52
2023-07-23T01:59:33.259Z,13.46
2023-07-23T02:01:59.807Z,13.48
2023-07-23T02:04:28.626Z,13.48
2023-07-23T02:06:55.271Z,13.46
2023-07-23T02:09:21.774Z,13.51
2023-07-23T02:11:48.354Z,13.51
2023-07-23T02:14:14.917Z,13.55
2023-07-23T02:19:30.308Z,13.40
2023-07-23T02:22:02.125Z,13.37
2023-07-23T02:24:32.564Z,13.55
2023-07-23T02:27:02.135Z,13.42
2023-07-23T02:29:30.925Z,13.36
2023-07-23T02:32:00.896Z,13.36
2023-07-23T02:34:30.465Z,13.31
2023-07-23T02:37:00.016Z,13.42
2023-07-23T02:39:28.866Z,13.44
2023-07-23T02:41:55.403Z,13.48
2023-07-23T02:44:21.863Z,13.42
2023-07-23T02:49:40.935Z,13.55
2023-07-23T02:52:07.458Z,13.38
2023-07-23T02:54:34.599Z,13.49
2023-07-23T02:57:01.179Z,13.50
2023-07-23T02:59:30.555Z,13.46
2023-07-23T03:02:03.293Z,13.29
2023-07-23T03:04:29.725Z,13.35
2023-07-23T03:07:05.036Z,13.46
2023-07-23T03:09:31.580Z,13.40
2023-07-23T03:12:01.398Z,13.52
2023-07-23T03:14:36.689Z,13.31
2023-07-23T03:17:03.561Z,13.31
2023-07-23T03:19:40.945Z,13.39
2023-07-23T03:22:07.663Z,13.39
2023-07-23T03:24:35.144Z,13.31
2023-07-23T03:27:04.317Z,13.30
2023-07-23T03:29:30.801Z,13.28
2023-07-23T03:32:00.292Z,13.38
2023-07-23T03:34:29.437Z,13.39
2023-07-23T03:36:55.894Z,13.46
2023-07-23T03:39:22.338Z,13.50
2023-07-23T03:41:49.102Z,13.50
2023-07-23T03:44:15.571Z,13.45
2023-07-23T03:47:00.767Z,13.44
2023-07-23T03:49:27.443Z,13.31
2023-07-23T04:40:18.297Z,13.58
2023-07-23T04:46:36.880Z,13.59
2023-07-23T04:49:15.230Z,13.42
2023-07-23T04:51:44.758Z,13.46
2023-07-23T04:54:14.532Z,13.51
2023-07-23T04:56:40.971Z,13.58
2023-07-23T04:59:46.583Z,13.69
2023-07-23T05:02:14.470Z,13.71
2023-07-23T05:08:50.502Z,13.65
2023-07-23T05:11:27.428Z,13.66
2023-07-23T05:24:16.048Z,13.86
2023-07-23T05:33:36.806Z,14.27
2023-07-23T06:00:20.551Z,14.67
2023-07-23T06:03:07.672Z,14.58
2023-07-23T06:05:36.967Z,14.64
2023-07-23T06:08:06.245Z,14.71
2023-07-23T06:13:33.033Z,14.55
2023-07-23T06:16:13.020Z,14.62
2023-07-23T06:18:44.806Z,14.72
2023-07-23T06:24:04.900Z,14.72
2023-07-23T06:26:31.403Z,14.64
2023-07-23T06:32:27.262Z,14.63
2023-07-23T06:35:05.829Z,14.78
2023-07-23T06:37:34.973Z,14.83
2023-07-23T06:40:01.575Z,14.76
2023-07-23T06:42:36.751Z,14.75
2023-07-23T06:45:07.787Z,14.67
2023-07-23T06:50:11.494Z,14.76
2023-07-23T06:50:35.222Z,14.84
2023-07-23T06:53:02.510Z,14.82
2023-07-23T06:55:40.121Z,14.94
2023-07-23T06:58:15.343Z,14.94
2023-07-23T07:00:44.023Z,14.80
2023-07-23T07:03:13.701Z,14.82
2023-07-23T07:05:41.780Z,14.77
2023-07-23T07:21:31.709Z,14.41
2023-07-23T07:23:58.420Z,14.56
2023-07-23T07:26:26.918Z,14.41
2023-07-23T07:28:56.000Z,14.33
2023-07-23T07:31:37.730Z,14.47
2023-07-23T07:34:10.464Z,14.44
2023-07-23T07:36:36.997Z,14.50
2023-07-23T07:39:17.538Z,14.53
2023-07-23T07:42:13.867Z,14.77
2023-07-23T07:44:43.334Z,14.89
2023-07-23T07:47:20.476Z,14.80
2023-07-23T07:49:47.816Z,14.99
2023-07-23T07:52:19.762Z,15.04
2023-07-23T07:55:04.774Z,14.95
2023-07-23T07:57:54.448Z,15.43
2023-07-23T08:00:21.335Z,15.24
2023-07-23T08:05:52.420Z,15.09
2023-07-23T08:08:23.489Z,15.01
2023-07-23T08:14:43.263Z,15.24
2023-07-23T08:17:13.270Z,15.18
2023-07-23T08:19:44.430Z,15.33
2023-07-23T08:22:13.746Z,15.37
2023-07-23T08:24:46.324Z,15.62
2023-07-23T08:27:17.583Z,15.40
2023-07-23T08:29:50.796Z,15.38
2023-07-23T08:32:23.812Z,15.26
2023-07-23T08:34:56.103Z,15.19
2023-07-23T08:37:26.015Z,15.21
2023-07-23T08:39:53.444Z,15.17
2023-07-23T08:42:57.328Z,15.26
2023-07-23T08:46:05.944Z,15.37
2023-07-23T08:48:42.887Z,15.36
2023-07-23T08:51:10.870Z,15.28
2023-07-23T08:53:40.514Z,15.27
2023-07-23T08:56:11.757Z,15.34
2023-07-23T08:58:43.034Z,15.17
2023-07-23T09:01:10.284Z,15.19
2023-07-23T09:03:37.119Z,15.15
2023-07-23T09:06:12.972Z,15.20
2023-07-23T09:11:34.628Z,15.25
2023-07-23T09:14:09.084Z,15.22
2023-07-23T09:16:38.735Z,15.55
2023-07-23T09:19:08.283Z,15.36
2023-07-23T09:21:37.810Z,15.42
2023-07-23T09:24:04.434Z,15.35
2023-07-23T09:26:36.345Z,15.45
2023-07-23T09:29:08.756Z,15.72
2023-07-23T09:31:41.857Z,15.82
2023-07-23T09:34:08.840Z,15.77
2023-07-23T09:36:42.738Z,15.86
2023-07-23T09:39:09.480Z,15.77
2023-07-23T09:41:44.614Z,15.75
2023-07-23T09:44:25.368Z,15.83
2023-07-23T09:46:58.809Z,15.60
2023-07-23T09:49:33.558Z,15.53
2023-07-23T09:52:07.326Z,15.71
2023-07-23T09:54:48.851Z,15.59
2023-07-23T09:57:30.982Z,15.63
2023-07-23T09:59:58.935Z,15.51
2023-07-23T10:07:53.834Z,15.88
2023-07-23T10:10:20.982Z,15.92
2023-07-23T10:12:47.740Z,15.81
2023-07-23T10:15:14.399Z,15.72
2023-07-23T10:17:47.700Z,15.80
2023-07-23T10:20:19.626Z,15.81
2023-07-23T10:22:49.035Z,15.87
2023-07-23T10:25:36.871Z,15.96
2023-07-23T10:28:09.663Z,16.03
2023-07-23T10:30:37.188Z,16.15
2023-07-23T10:33:13.570Z,16.19
2023-07-23T10:35:55.551Z,16.23
2023-07-23T10:38:23.061Z,16.30
2023-07-23T10:40:49.730Z,16.12
2023-07-23T10:43:16.584Z,16.60
2023-07-23T10:45:48.771Z,16.90
2023-07-23T10:48:18.376Z,16.85
2023-07-23T10:53:59.372Z,16.97
2023-07-23T10:56:26.950Z,16.93
2023-07-23T10:59:09.746Z,17.08
2023-07-23T11:01:44.801Z,17.08
2023-07-23T11:04:16.407Z,17.20
2023-07-23T11:06:58.197Z,17.24
2023-07-23T11:09:25.774Z,17.24
2023-07-23T11:11:56.764Z,17.20
2023-07-23T11:14:27.918Z,17.06
2023-07-23T11:17:12.224Z,16.94
2023-07-23T11:19:38.657Z,16.96
2023-07-23T11:22:05.904Z,17.13
2023-07-23T11:24:36.037Z,17.16
2023-07-23T11:27:05.672Z,17.24
2023-07-23T11:29:35.180Z,17.15
2023-07-23T11:32:08.119Z,17.30
2023-07-23T11:34:34.686Z,17.07
2023-07-23T11:37:08.650Z,17.15
2023-07-23T11:39:35.098Z,17.22
2023-07-23T11:42:04.148Z,16.96
2023-07-23T11:44:34.683Z,17.04
2023-07-23T11:47:03.423Z,16.97
2023-07-23T11:49:30.165Z,16.90
2023-07-23T11:51:59.103Z,17.00
2023-07-23T11:54:25.492Z,17.05
2023-07-23T11:56:53.281Z,17.62
2023-07-23T11:59:22.427Z,17.64
2023-07-23T12:01:49.090Z,17.75
2023-07-23T12:04:15.644Z,18.00
2023-07-23T12:07:09.319Z,18.10
2023-07-23T12:09:35.943Z,18.15
2023-07-23T12:12:05.826Z,18.30
2023-07-23T12:14:36.734Z,19.09
2023-07-23T12:17:06.072Z,19.00
2023-07-23T12:19:33.518Z,18.71
2023-07-23T12:22:13.583Z,19.10
2023-07-23T12:24:40.568Z,19.64
2023-07-23T12:27:07.130Z,19.66
2023-07-23T12:29:36.154Z,19.47
2023-07-23T12:32:09.661Z,19.56
2023-07-23T12:34:36.521Z,19.24
2023-07-23T12:37:09.212Z,19.17
2023-07-23T12:39:39.235Z,19.29
2023-07-23T12:42:09.279Z,18.80
2023-07-23T12:44:36.036Z,18.98
2023-07-23T12:47:10.264Z,19.33
2023-07-23T12:52:41.767Z,19.88
2023-07-23T12:55:24.677Z,20.23
2023-07-23T12:58:18.573Z,20.71
2023-07-23T13:00:45.162Z,20.44
2023-07-23T13:03:34.983Z,20.06
2023-07-23T13:06:15.570Z,19.94
2023-07-23T13:08:45.047Z,20.10
2023-07-23T13:11:22.647Z,19.99
2023-07-23T13:13:51.766Z,20.27
2023-07-23T13:19:53.056Z,20.70
2023-07-23T13:22:28.544Z,20.59
2023-07-23T13:25:20.435Z,20.49
2023-07-23T13:28:22.361Z,20.76
2023-07-23T13:36:39.680Z,20.46
2023-07-23T13:39:07.389Z,20.09
2023-07-23T13:41:36.505Z,20.18
2023-07-23T13:47:00.373Z,20.72
2023-07-23T13:52:15.544Z,20.55
2023-07-23T13:55:24.812Z,20.63
2023-07-23T14:01:39.000Z,22.17
2023-07-23T14:04:25.093Z,22.10
2023-07-23T14:09:48.148Z,22.99
2023-07-23T14:15:16.979Z,22.54
2023-07-23T14:17:54.148Z,22.24
2023-07-23T14:20:21.119Z,21.89
2023-07-23T14:22:47.552Z,21.55
2023-07-23T14:25:19.045Z,21.50
2023-07-23T14:28:18.773Z,22.35
2023-07-23T14:31:06.861Z,22.83
2023-07-23T14:36:13.629Z,22.43
2023-07-23T14:41:38.211Z,23.17
2023-07-23T14:47:19.750Z,23.07
2023-07-23T14:49:56.443Z,23.25
2023-07-23T14:52:37.172Z,23.27
2023-07-23T14:55:17.354Z,23.97
2023-07-23T14:57:55.938Z,23.98
2023-07-23T15:00:44.728Z,23.43
2023-07-23T15:03:36.475Z,23.01
2023-07-23T15:06:06.068Z,23.01
2023-07-23T15:08:59.178Z,22.77
2023-07-23T15:11:32.696Z,22.48
2023-07-23T15:14:27.748Z,22.12
2023-07-23T15:16:57.497Z,21.69
2023-07-23T15:19:25.674Z,21.49
2023-07-23T15:22:08.328Z,21.41
2023-07-23T15:27:44.669Z,21.59
2023-07-23T15:30:19.799Z,21.61
2023-07-23T15:32:46.382Z,21.66
2023-07-23T15:35:12.881Z,21.50
2023-07-23T15:37:46.471Z,21.62
2023-07-23T15:42:57.745Z,22.16
2023-07-23T15:45:25.748Z,22.10
2023-07-23T15:51:30.734Z,22.59
2023-07-23T15:54:02.076Z,22.53
2023-07-23T16:03:21.168Z,22.36
2023-07-23T16:05:50.446Z,22.19
2023-07-23T16:08:18.089Z,22.36
2023-07-23T16:10:46.235Z,22.22
2023-07-23T16:13:27.101Z,22.11
2023-07-23T16:15:56.666Z,22.07
2023-07-23T16:18:28.296Z,21.81
2023-07-23T16:20:54.928Z,21.84
2023-07-23T16:23:21.323Z,22.02
2023-07-23T16:26:06.778Z,21.71
2023-07-23T16:28:35.733Z,21.75
2023-07-23T16:31:02.377Z,21.72
2023-07-23T16:33:29.223Z,21.67
2023-07-23T16:36:17.133Z,21.54
2023-07-23T16:38:47.459Z,21.63
2023-07-23T16:41:22.984Z,21.69
2023-07-23T16:43:51.972Z,21.48
2023-07-23T16:46:18.578Z,21.46
2023-07-23T16:48:49.559Z,21.59
2023-07-23T16:51:20.245Z,21.38
2023-07-23T16:54:08.307Z,21.44
2023-07-23T16:56:37.791Z,21.39
2023-07-23T16:59:11.848Z,21.29
2023-07-23T17:01:38.347Z,21.20
2023-07-23T17:04:07.484Z,21.19
2023-07-23T17:06:38.394Z,21.31
2023-07-23T17:09:13.537Z,21.22
2023-07-23T17:11:39.945Z,21.11
2023-07-23T17:14:10.854Z,21.12
2023-07-23T17:16:40.499Z,21.05
2023-07-23T17:19:08.210Z,21.20
2023-07-23T17:21:42.576Z,21.09
2023-07-23T17:24:08.996Z,21.29
2023-07-23T17:26:39.238Z,21.16
2023-07-23T17:29:08.617Z,21.00
2023-07-23T17:31:55.868Z,21.00
2023-07-23T17:34:22.254Z,21.05
2023-07-23T17:37:13.140Z,20.99
2023-07-23T17:39:39.514Z,20.86
2023-07-23T17:42:08.812Z,20.83
2023-07-23T17:44:38.016Z,20.70
2023-07-23T17:47:07.816Z,20.61
2023-07-23T17:49:36.574Z,20.58
2023-07-23T17:52:03.191Z,20.57
2023-07-23T17:54:32.666Z,20.55
2023-07-23T17:57:07.439Z,20.57
2023-07-23T17:59:39.341Z,20.40
2023-07-23T18:02:16.713Z,20.51
2023-07-23T18:04:43.164Z,20.67
2023-07-23T18:07:09.644Z,20.58
2023-07-23T18:09:40.211Z,20.53
2023-07-23T18:12:11.746Z,20.53
2023-07-23T18:14:38.214Z,20.36
2023-07-23T18:17:10.465Z,20.29
2023-07-23T18:19:48.513Z,20.37
2023-07-23T18:22:14.957Z,20.19
2023-07-23T18:24:48.202Z,20.21
2023-07-23T18:27:16.983Z,20.13
2023-07-23T18:30:06.961Z,20.01
2023-07-23T18:33:56.796Z,20.02
2023-07-23T18:35:27.181Z,19.91
2023-07-23T18:37:53.629Z,19.99
2023-07-23T18:40:53.254Z,20.08
2023-07-23T18:43:18.265Z,19.81
2023-07-23T18:45:44.758Z,19.79
2023-07-23T18:48:13.953Z,19.91
2023-07-23T18:50:44.536Z,19.80
2023-07-23T18:53:13.394Z,19.74
2023-07-23T18:58:47.582Z,19.72
2023-07-23T19:01:14.059Z,19.75
2023-07-23T19:03:40.574Z,19.61
2023-07-23T19:06:11.149Z,19.51
2023-07-23T19:08:42.462Z,19.60
2023-07-23T19:11:08.976Z,19.44
2023-07-23T19:13:38.413Z,19.35
2023-07-23T19:16:09.835Z,19.49
2023-07-23T19:18:36.907Z,19.18
2023-07-23T19:21:03.852Z,19.09
2023-07-23T19:23:30.257Z,19.20
2023-07-23T19:25:59.339Z,19.13
2023-07-23T19:28:25.799Z,19.11
2023-07-23T19:30:57.834Z,19.02
2023-07-23T19:33:25.603Z,19.03
2023-07-23T19:35:53.654Z,18.85
2023-07-23T19:38:23.740Z,18.81
2023-07-23T19:40:50.424Z,18.83
2023-07-23T19:43:23.050Z,18.85
2023-07-23T19:45:59.675Z,18.91
2023-07-23T19:48:26.235Z,18.86
2023-07-23T19:50:52.646Z,18.85
2023-07-23T19:53:19.712Z,18.60
2023-07-23T19:55:49.070Z,18.65
2023-07-23T19:58:16.371Z,18.69
2023-07-23T20:00:49.760Z,18.79
2023-07-23T20:03:20.266Z,18.81
2023-07-23T20:09:06.114Z,18.57
2023-07-23T20:11:39.947Z,18.58
2023-07-23T20:14:09.233Z,18.52
2023-07-23T20:16:38.255Z,18.47
2023-07-23T20:19:04.736Z,18.51
2023-07-23T20:21:43.115Z,18.62
2023-07-23T20:24:17.400Z,18.70
2023-07-23T20:26:56.357Z,18.66
2023-07-23T20:29:23.125Z,18.61
2023-07-23T20:31:56.701Z,18.70
2023-07-23T20:34:28.640Z,18.54
2023-07-23T20:36:58.389Z,18.62
2023-07-23T20:39:25.485Z,18.64
2023-07-23T20:41:54.851Z,18.62
2023-07-23T20:44:21.256Z,18.55
2023-07-23T20:47:18.008Z,18.45
2023-07-23T20:49:34.775Z,18.67
2023-07-23T20:52:04.702Z,18.71
2023-07-23T20:54:31.121Z,18.55
2023-07-23T20:56:57.897Z,18.51
2023-07-23T20:59:27.612Z,18.55
2023-07-23T21:01:54.503Z,18.44
2023-07-23T21:04:21.070Z,18.57
2023-07-23T21:06:47.497Z,18.49
2023-07-23T21:09:17.057Z,18.52
2023-07-23T21:11:43.485Z,18.52
2023-07-23T21:14:13.126Z,18.57
2023-07-23T21:16:39.564Z,18.62
2023-07-23T21:19:08.586Z,18.50
2023-07-23T21:21:46.577Z,18.36
2023-07-23T21:24:30.622Z,18.43
2023-07-23T21:27:17.351Z,18.32
2023-07-23T21:29:45.429Z,18.29
2023-07-23T21:32:16.743Z,18.33
2023-07-23T21:34:43.155Z,18.26
2023-07-23T21:37:36.430Z,18.28
2023-07-23T21:40:02.995Z,18.33
2023-07-23T21:42:34.837Z,18.15
2023-07-23T21:45:01.291Z,18.12
2023-07-23T21:50:31.398Z,18.06
2023-07-23T21:53:03.494Z,18.05
2023-07-23T21:55:29.928Z,18.15
2023-07-23T21:57:56.360Z,18.07
2023-07-23T22:00:23.004Z,18.21
2023-07-23T22:02:49.571Z,18.18
2023-07-23T22:05:21.906Z,18.08
2023-07-23T22:07:53.255Z,18.13
2023-07-23T22:10:20.096Z,17.89
2023-07-23T22:12:46.592Z,17.92
2023-07-23T22:15:13.161Z,17.75
2023-07-23T22:17:39.614Z,17.82
2023-07-23T22:20:09.515Z,17.78
2023-07-23T22:22:38.472Z,17.69
2023-07-23T22:25:07.668Z,17.69
2023-07-23T22:27:34.106Z,17.63
2023-07-23T22:30:06.036Z,17.48
2023-07-23T22:32:38.387Z,17.49
2023-07-23T22:35:08.009Z,17.39
2023-07-23T22:37:34.516Z,17.30
2023-07-23T22:40:03.914Z,17.43
2023-07-23T22:42:30.367Z,17.47
2023-07-23T22:45:01.946Z,17.42
2023-07-23T22:49:55.957Z,17.40
2023-07-23T22:52:28.926Z,17.57
2023-07-23T22:54:55.484Z,17.36
2023-07-23T22:57:34.481Z,17.40
2023-07-23T23:00:11.194Z,17.48
2023-07-23T23:02:44.062Z,17.37
2023-07-23T23:05:16.846Z,17.36
2023-07-23T23:07:43.402Z,17.49
2023-07-23T23:10:14.935Z,17.34
2023-07-23T23:12:51.836Z,17.41
2023-07-23T23:15:18.272Z,17.30
2023-07-23T23:17:50.571Z,17.33
2023-07-23T23:20:19.880Z,17.34
2023-07-23T23:22:48.965Z,17.36
2023-07-23T23:25:18.476Z,17.62
2023-07-23T23:28:08.762Z,17.43
2023-07-23T23:33:55.239Z,17.31
2023-07-23T23:36:32.355Z,17.22
2023-07-23T23:39:02.638Z,17.05
2023-07-23T23:41:38.035Z,17.06
2023-07-23T23:44:07.247Z,16.98
2023-07-23T23:49:41.764Z,16.96
2023-07-23T23:52:23.047Z,16.84
2023-07-23T23:55:09.970Z,16.92
2023-07-23T23:58:00.217Z,16.84
